Campbell, Missouri
Current Conditions -  °F | °C
As of 6:53 AM on Friday 19 Dec 2014 (Local Time) from KPOF Reporting Station
Broken Clouds Broken Clouds  
Wind Chill: 29°   Ceiling: 3500
Heat Index: 34°   Visibility: 8mi
Dew Point: 29°   Wind: 6mph
Humidity: 82%   Direction: 30°NNE
Pressure: 30.28"   Gusts: NA
Location:  36.49°N, 90.08°W
Report Text: KPOF 191253Z AUTO 03005KT 8SM BKN035 01/M02 A3028 RMK AO2 SLP261 T00111017
Loading
Personal Weather Stations






























Interactive Weather Map New forecast layout! Learn more

10-Day Weather Forecast

Advertisements
Track Severe Weather on mobile